Time;durP1;ratioP1;P1;durP2;ratioP2;P2;SDS_P1;SDS_P2;PMS_P1;PMS_P2;Temp;Humidity;BMP_temperature;BMP_pressure;BME280_temperature;BME280_humidity;BME280_pressure;Samples;Min_cycle;Max_cycle;Signal;HPM_P1;HPM_P2
2024/01/14 00:01:35;;;;;;;10.13;6.73;;;;;;;;;;5112365;28;20297;-84
2024/01/14 00:04:02;;;;;;;21.43;9.97;;;;;;;;;;5113773;28;20193;-84
2024/01/14 00:06:33;;;;;;;18.23;8.53;;;;;;;;;;5113806;28;20287;-84
2024/01/14 00:09:04;;;;;;;13.07;5.60;;;;;;;;;;5110863;28;20334;-85
2024/01/14 00:11:46;;;;;;;;;;;;;;;;;;;;;
2024/01/14 00:14:13;;;;;;;12.93;7.50;;;;;;;;;;5112447;28;20609;-85
2024/01/14 00:16:41;;;;;;;11.90;5.80;;;;;;;;;;5111348;28;20238;-85
2024/01/14 00:19:09;;;;;;;4.80;4.33;;;;;;;;;;5112350;28;20197;-85
2024/01/14 00:21:40;;;;;;;6.57;4.50;;;;;;;;;;5111368;28;20293;-85
2024/01/14 00:24:08;;;;;;;9.67;5.53;;;;;;;;;;5069278;28;20207;-83
2024/01/14 00:26:36;;;;;;;4.70;3.90;;;;;;;;;;5070955;28;20225;-85
2024/01/14 00:29:04;;;;;;;9.20;5.23;;;;;;;;;;5071157;28;20206;-83
2024/01/14 00:31:31;;;;;;;10.93;4.50;;;;;;;;;;5070342;28;20628;-85
2024/01/14 00:34:01;;;;;;;13.13;8.07;;;;;;;;;;5070912;28;20743;-84
2024/01/14 00:36:32;;;;;;;17.67;6.63;;;;;;;;;;5071775;28;20199;-85
2024/01/14 00:39:04;;;;;;;14.67;7.40;;;;;;;;;;5073953;28;20229;-86
2024/01/14 00:41:31;;;;;;;10.27;4.80;;;;;;;;;;5072365;28;20735;-84
2024/01/14 00:44:04;;;;;;;12.67;6.63;;;;;;;;;;5055640;28;20249;-84
2024/01/14 00:46:34;;;;;;;21.60;5.90;;;;;;;;;;5051161;28;20677;-84
2024/01/14 00:49:09;;;;;;;11.27;7.00;;;;;;;;;;5050595;28;20199;-85
2024/01/14 00:51:36;;;;;;;10.97;5.77;;;;;;;;;;5050451;28;20614;-84
2024/01/14 00:54:18;;;;;;;11.97;6.30;;;;;;;;;;5054726;28;20226;-84
2024/01/14 00:56:47;;;;;;;11.20;4.13;;;;;;;;;;5050599;28;20207;-83
2024/01/14 00:59:22;;;;;;;15.17;6.93;;;;;;;;;;5072069;28;20614;-84
2024/01/14 01:01:49;;;;;;;10.20;5.77;;;;;;;;;;5072879;28;20196;-85
2024/01/14 01:04:20;;;;;;;7.40;5.30;;;;;;;;;;5087352;28;20209;-85
2024/01/14 01:06:48;;;;;;;5.27;4.67;;;;;;;;;;5079051;28;20198;-83
2024/01/14 01:09:16;;;;;;;7.83;5.67;;;;;;;;;;5071030;28;20221;-84
2024/01/14 01:11:44;;;;;;;10.33;5.77;;;;;;;;;;5070573;28;20325;-84
2024/01/14 01:14:14;;;;;;;10.13;5.87;;;;;;;;;;5071553;28;20187;-85
2024/01/14 01:16:45;;;;;;;27.17;5.63;;;;;;;;;;5077149;28;20379;-84
2024/01/14 01:19:13;;;;;;;22.27;7.00;;;;;;;;;;5079174;28;20278;-86
2024/01/14 01:21:42;;;;;;;12.70;3.93;;;;;;;;;;5078183;28;20788;-85
2024/01/14 01:24:13;;;;;;;4.97;4.47;;;;;;;;;;5119625;28;20237;-84
2024/01/14 01:26:43;;;;;;;7.83;6.47;;;;;;;;;;5135522;28;20197;-83
2024/01/14 01:29:16;;;;;;;13.80;6.40;;;;;;;;;;5130446;28;20189;-86
2024/01/14 01:31:49;;;;;;;9.27;5.23;;;;;;;;;;5111006;28;20237;-84
2024/01/14 01:34:17;;;;;;;11.73;6.60;;;;;;;;;;5111485;28;20205;-85
2024/01/14 01:36:56;;;;;;;14.43;6.50;;;;;;;;;;5111600;28;20614;-85
2024/01/14 01:39:32;;;;;;;10.40;6.20;;;;;;;;;;5110918;28;20216;-85
2024/01/14 01:42:08;;;;;;;4.77;4.37;;;;;;;;;;5110727;28;20275;-84
2024/01/14 01:44:41;;;;;;;6.93;4.60;;;;;;;;;;5109892;28;20680;-85
2024/01/14 01:47:11;;;;;;;9.30;4.37;;;;;;;;;;5110758;28;20215;-84
2024/01/14 01:49:44;;;;;;;8.07;4.13;;;;;;;;;;5111411;28;20205;-84
2024/01/14 01:52:16;;;;;;;12.37;4.80;;;;;;;;;;5110116;28;20751;-85
2024/01/14 01:54:44;;;;;;;6.50;4.00;;;;;;;;;;5111280;28;20620;-84
2024/01/14 01:57:16;;;;;;;10.37;6.03;;;;;;;;;;5111043;28;20201;-84
2024/01/14 01:59:48;;;;;;;10.10;4.97;;;;;;;;;;5111163;28;20212;-84
2024/01/14 02:02:19;;;;;;;9.27;4.97;;;;;;;;;;5115413;28;20227;-84
2024/01/14 02:05:02;;;;;;;6.67;3.57;;;;;;;;;;5114394;28;20268;-84
2024/01/14 02:07:34;;;;;;;9.03;3.23;;;;;;;;;;5113876;28;20273;-85
2024/01/14 02:10:06;;;;;;;13.53;4.77;;;;;;;;;;5114617;28;20228;-85
2024/01/14 02:12:49;;;;;;;9.27;4.30;;;;;;;;;;5114107;28;20721;-84
2024/01/14 02:15:26;;;;;;;7.40;5.17;;;;;;;;;;5110802;28;20208;-85
2024/01/14 02:18:08;;;;;;;7.73;3.47;;;;;;;;;;5114222;28;20753;-85
2024/01/14 02:20:40;;;;;;;4.37;4.07;;;;;;;;;;5114304;28;20739;-84
2024/01/14 02:23:24;;;;;;;13.73;5.67;;;;;;;;;;5113392;28;20233;-85
2024/01/14 02:25:59;;;;;;;13.10;4.07;;;;;;;;;;5113983;28;20200;-85
2024/01/14 02:28:38;;;;;;;5.47;3.93;;;;;;;;;;5113757;28;20220;-84
2024/01/14 02:31:06;;;;;;;10.63;3.87;;;;;;;;;;5113927;28;20238;-83
2024/01/14 02:33:55;;;;;;;11.00;4.90;;;;;;;;;;5114123;28;20197;-84
2024/01/14 02:36:22;;;;;;;3.87;3.60;;;;;;;;;;5113503;28;20268;-84
2024/01/14 02:38:53;;;;;;;15.50;5.60;;;;;;;;;;5115162;28;20258;-83
2024/01/14 02:41:31;;;;;;;3.17;2.87;;;;;;;;;;5114937;28;20670;-84
2024/01/14 02:44:05;;;;;;;7.53;3.27;;;;;;;;;;5114193;28;20611;-84
2024/01/14 02:46:36;;;;;;;12.07;3.23;;;;;;;;;;5114389;28;20302;-85
2024/01/14 02:49:04;;;;;;;7.23;4.07;;;;;;;;;;5113878;28;20205;-83
2024/01/14 02:51:41;;;;;;;10.83;4.97;;;;;;;;;;5113353;28;20331;-83
2024/01/14 02:54:10;;;;;;;4.13;3.87;;;;;;;;;;5114515;28;20185;-83
2024/01/14 02:56:55;;;;;;;3.87;3.43;;;;;;;;;;5113038;28;20198;-84
2024/01/14 02:59:32;;;;;;;12.60;6.73;;;;;;;;;;5116476;28;20700;-83
2024/01/14 03:02:11;;;;;;;5.57;5.13;;;;;;;;;;5116663;28;20670;-83
2024/01/14 03:04:39;;;;;;;6.10;2.53;;;;;;;;;;5111825;28;20201;-83
2024/01/14 03:07:06;;;;;;;10.37;4.03;;;;;;;;;;5112674;28;20280;-84
2024/01/14 03:09:38;;;;;;;4.50;2.07;;;;;;;;;;5113626;28;20614;-84
2024/01/14 03:12:08;;;;;;;7.90;4.53;;;;;;;;;;5113952;28;20225;-84
2024/01/14 03:14:39;;;;;;;5.70;3.40;;;;;;;;;;5117106;28;20279;-84
2024/01/14 03:17:07;;;;;;;8.83;4.00;;;;;;;;;;5117655;28;20207;-84
2024/01/14 03:19:35;;;;;;;6.77;3.73;;;;;;;;;;5119476;28;20197;-84
2024/01/14 03:22:02;;;;;;;5.50;3.70;;;;;;;;;;5118086;28;20207;-84
2024/01/14 03:24:32;;;;;;;2.60;2.43;;;;;;;;;;5112458;28;20229;-83
2024/01/14 03:27:00;;;;;;;4.70;3.03;;;;;;;;;;5113805;28;20741;-83
2024/01/14 03:29:31;;;;;;;6.23;3.73;;;;;;;;;;5113143;28;20346;-83
2024/01/14 03:32:00;;;;;;;2.50;2.17;;;;;;;;;;5113064;28;20331;-84
2024/01/14 03:34:31;;;;;;;9.43;3.67;;;;;;;;;;5113090;28;20219;-85
2024/01/14 03:37:08;;;;;;;4.33;2.57;;;;;;;;;;5112210;28;20185;-85
2024/01/14 03:39:37;;;;;;;14.33;4.37;;;;;;;;;;5112730;28;20197;-82
2024/01/14 03:42:20;;;;;;;7.17;4.50;;;;;;;;;;5113261;28;20207;-84
2024/01/14 03:44:50;;;;;;;4.73;3.07;;;;;;;;;;5112381;28;20194;-84
2024/01/14 03:47:25;;;;;;;3.67;2.93;;;;;;;;;;5112591;28;20208;-85
2024/01/14 03:49:56;;;;;;;4.10;3.73;;;;;;;;;;5111582;28;20193;-83
2024/01/14 03:52:30;;;;;;;36.20;17.77;;;;;;;;;;5109048;28;20239;-83
2024/01/14 03:55:00;;;;;;;14.50;9.07;;;;;;;;;;5111980;28;20242;-84
2024/01/14 03:57:32;;;;;;;4.83;4.20;;;;;;;;;;5111254;28;20675;-83
2024/01/14 03:59:59;;;;;;;10.47;6.90;;;;;;;;;;5112541;28;20197;-85
2024/01/14 04:02:32;;;;;;;7.20;5.33;;;;;;;;;;5104050;28;20206;-85
2024/01/14 04:05:06;;;;;;;10.73;5.37;;;;;;;;;;5104265;28;20235;-84
2024/01/14 04:07:39;;;;;;;11.83;4.97;;;;;;;;;;5112577;28;20204;-84
2024/01/14 04:10:08;;;;;;;40.77;17.80;;;;;;;;;;5112022;28;20534;-84
2024/01/14 04:12:38;;;;;;;5.03;3.93;;;;;;;;;;5119225;28;20239;-84
2024/01/14 04:15:10;;;;;;;15.57;3.77;;;;;;;;;;5127930;28;20286;-83
2024/01/14 04:17:41;;;;;;;3.90;3.60;;;;;;;;;;5132124;28;20209;-82
2024/01/14 04:20:10;;;;;;;24.43;6.67;;;;;;;;;;5114388;28;20193;-84
2024/01/14 04:22:41;;;;;;;8.20;5.80;;;;;;;;;;5112160;28;20237;-83
2024/01/14 04:25:11;;;;;;;12.50;4.03;;;;;;;;;;5111103;28;20193;-83
2024/01/14 04:27:38;;;;;;;8.17;4.23;;;;;;;;;;5111105;28;20607;-83
2024/01/14 04:30:07;;;;;;;5.60;3.57;;;;;;;;;;5112808;28;20587;-83
2024/01/14 04:32:36;;;;;;;7.37;4.50;;;;;;;;;;5111503;28;20225;-85
2024/01/14 04:35:08;;;;;;;6.63;2.80;;;;;;;;;;5111967;28;20650;-83
2024/01/14 04:37:35;;;;;;;5.00;3.70;;;;;;;;;;5112831;28;20201;-85
2024/01/14 04:40:04;;;;;;;12.03;4.20;;;;;;;;;;5111422;28;20306;-84
2024/01/14 04:42:31;;;;;;;4.60;3.70;;;;;;;;;;5111297;28;20288;-85
2024/01/14 04:44:59;;;;;;;11.43;5.30;;;;;;;;;;5111975;28;20664;-84
2024/01/14 04:47:26;;;;;;;9.77;5.57;;;;;;;;;;5094643;28;20217;-85
2024/01/14 04:49:58;;;;;;;8.40;3.53;;;;;;;;;;5091338;28;20206;-85
2024/01/14 04:52:27;;;;;;;2.83;2.70;;;;;;;;;;5110793;27;20224;-85
2024/01/14 04:54:55;;;;;;;5.43;3.80;;;;;;;;;;5131326;27;20198;-83
2024/01/14 04:57:21;;;;;;;27.00;10.30;;;;;;;;;;5131341;27;20203;-84
2024/01/14 04:59:49;;;;;;;6.53;4.00;;;;;;;;;;5133019;27;20189;-83
2024/01/14 05:02:17;;;;;;;11.93;6.63;;;;;;;;;;5139812;27;20200;-84
2024/01/14 05:04:44;;;;;;;10.27;3.43;;;;;;;;;;5151275;27;20207;-84
2024/01/14 05:07:14;;;;;;;8.53;4.67;;;;;;;;;;5153850;27;20239;-84
2024/01/14 05:09:45;;;;;;;5.60;4.43;;;;;;;;;;5152739;27;20461;-85
2024/01/14 05:12:15;;;;;;;6.27;4.13;;;;;;;;;;5137185;27;20611;-85
2024/01/14 05:14:42;;;;;;;5.87;3.53;;;;;;;;;;5132188;27;20738;-84
2024/01/14 05:17:11;;;;;;;2.73;2.63;;;;;;;;;;5105791;27;20452;-84
2024/01/14 05:19:43;;;;;;;8.53;3.27;;;;;;;;;;5100789;28;20198;-85
2024/01/14 05:22:13;;;;;;;9.43;3.57;;;;;;;;;;5104117;28;20202;-85
2024/01/14 05:24:46;;;;;;;14.50;6.37;;;;;;;;;;5098628;28;20280;-84
2024/01/14 05:27:14;;;;;;;4.67;3.77;;;;;;;;;;5089629;28;20735;-84
2024/01/14 05:29:51;;;;;;;10.57;6.03;;;;;;;;;;5091194;28;20480;-84
2024/01/14 05:32:19;;;;;;;8.53;4.40;;;;;;;;;;5091358;28;20230;-82
2024/01/14 05:34:47;;;;;;;8.97;5.03;;;;;;;;;;5091015;28;20198;-85
2024/01/14 05:37:14;;;;;;;4.33;3.77;;;;;;;;;;5091217;28;20501;-84
2024/01/14 05:39:42;;;;;;;7.43;6.07;;;;;;;;;;5090099;28;20213;-85
2024/01/14 05:42:12;;;;;;;12.03;5.57;;;;;;;;;;5090426;28;20198;-84
2024/01/14 05:44:41;;;;;;;18.33;6.00;;;;;;;;;;5090384;28;20576;-83
2024/01/14 05:47:17;;;;;;;10.67;7.33;;;;;;;;;;5090609;28;20598;-84
2024/01/14 05:49:46;;;;;;;8.87;6.03;;;;;;;;;;5090354;28;20278;-82
2024/01/14 05:52:14;;;;;;;16.73;6.20;;;;;;;;;;5090607;28;20252;-85
2024/01/14 05:54:44;;;;;;;3.87;3.57;;;;;;;;;;5091037;28;20432;-84
2024/01/14 05:57:16;;;;;;;11.07;5.83;;;;;;;;;;5091002;28;20509;-85
2024/01/14 05:59:44;;;;;;;5.03;4.60;;;;;;;;;;5090731;28;20198;-84
2024/01/14 06:02:13;;;;;;;5.77;5.27;;;;;;;;;;5089850;28;20690;-85
2024/01/14 06:04:41;;;;;;;12.03;6.20;;;;;;;;;;5090819;28;20606;-86
2024/01/14 06:07:09;;;;;;;11.93;5.43;;;;;;;;;;5091959;28;20198;-83
2024/01/14 06:09:37;;;;;;;23.37;12.30;;;;;;;;;;5091807;28;20652;-84
2024/01/14 06:12:04;;;;;;;10.07;4.80;;;;;;;;;;5090831;28;20343;-81
2024/01/14 06:14:33;;;;;;;10.20;8.23;;;;;;;;;;5091076;28;20183;-85
2024/01/14 06:17:03;;;;;;;24.47;9.57;;;;;;;;;;5091163;28;20206;-86
2024/01/14 06:19:30;;;;;;;13.87;6.43;;;;;;;;;;5090096;28;20194;-86
2024/01/14 06:22:00;;;;;;;18.33;8.70;;;;;;;;;;5090690;28;20263;-86
2024/01/14 06:24:28;;;;;;;17.33;8.47;;;;;;;;;;5090156;28;20229;-85
2024/01/14 06:26:56;;;;;;;19.50;8.97;;;;;;;;;;5089595;28;20225;-86
2024/01/14 06:29:25;;;;;;;21.87;9.70;;;;;;;;;;5089592;28;20233;-86
2024/01/14 06:31:53;;;;;;;15.80;7.57;;;;;;;;;;5089883;28;20230;-85
2024/01/14 06:34:21;;;;;;;22.63;10.33;;;;;;;;;;5090781;28;20198;-86
2024/01/14 06:36:48;;;;;;;22.60;11.03;;;;;;;;;;5089641;28;20638;-86
2024/01/14 06:39:15;;;;;;;22.40;11.50;;;;;;;;;;5090125;28;20578;-85
2024/01/14 06:41:42;;;;;;;35.67;13.60;;;;;;;;;;5088254;28;20194;-83
2024/01/14 06:44:10;;;;;;;34.57;14.33;;;;;;;;;;5088809;28;20263;-85
2024/01/14 06:46:43;;;;;;;28.27;13.37;;;;;;;;;;5089299;28;20750;-86
2024/01/14 06:49:11;;;;;;;21.00;10.77;;;;;;;;;;5089906;28;20277;-84
2024/01/14 06:51:43;;;;;;;26.63;11.57;;;;;;;;;;5091350;28;20218;-85
2024/01/14 06:54:10;;;;;;;27.23;12.90;;;;;;;;;;5092025;28;20285;-84
2024/01/14 06:56:44;;;;;;;26.73;10.63;;;;;;;;;;5090315;28;20197;-85
2024/01/14 06:59:14;;;;;;;30.00;13.10;;;;;;;;;;5093636;28;20634;-84
2024/01/14 07:01:45;;;;;;;25.80;11.93;;;;;;;;;;5093346;28;20194;-84
2024/01/14 07:04:14;;;;;;;22.97;11.77;;;;;;;;;;5093312;28;20194;-86
2024/01/14 07:06:41;;;;;;;27.30;12.20;;;;;;;;;;5094042;28;20271;-85
2024/01/14 07:09:12;;;;;;;21.27;11.60;;;;;;;;;;5103417;28;20221;-85
2024/01/14 07:11:39;;;;;;;39.50;14.83;;;;;;;;;;5111154;28;20286;-85
2024/01/14 07:14:06;;;;;;;36.93;15.33;;;;;;;;;;5111975;28;20244;-85
2024/01/14 07:19:35;;;;;;;43.33;15.30;;;;;;;;;;5091373;28;20271;-86
2024/01/14 07:22:09;;;;;;;33.17;13.77;;;;;;;;;;5115243;28;20243;-85
2024/01/14 07:24:38;;;;;;;24.47;11.17;;;;;;;;;;5115843;28;20345;-84
2024/01/14 07:27:05;;;;;;;32.23;11.80;;;;;;;;;;5126786;28;20240;-85
2024/01/14 07:29:35;;;;;;;23.80;10.40;;;;;;;;;;5135870;28;20246;-85
2024/01/14 07:32:04;;;;;;;28.90;11.77;;;;;;;;;;5113865;28;20232;-82
2024/01/14 07:34:35;;;;;;;29.13;10.97;;;;;;;;;;5110463;27;20236;-85
2024/01/14 07:37:16;;;;;;;25.03;11.50;;;;;;;;;;5112906;28;20241;-84
2024/01/14 07:39:46;;;;;;;23.23;11.67;;;;;;;;;;5110627;28;20782;-84
2024/01/14 07:42:20;;;;;;;25.07;12.40;;;;;;;;;;5112853;28;20221;-85
2024/01/14 07:44:50;;;;;;;30.00;11.70;;;;;;;;;;5112888;28;20693;-84
2024/01/14 07:47:25;;;;;;;27.03;11.83;;;;;;;;;;5112349;28;20221;-86
2024/01/14 07:49:54;;;;;;;24.33;12.73;;;;;;;;;;5105433;28;20260;-86
2024/01/14 07:52:28;;;;;;;23.07;12.80;;;;;;;;;;5093177;28;20225;-86
2024/01/14 07:55:03;;;;;;;29.13;14.60;;;;;;;;;;5093029;28;20594;-85
2024/01/14 07:57:32;;;;;;;25.27;13.77;;;;;;;;;;5091773;28;20212;-86
2024/01/14 08:00:18;;;;;;;23.63;12.73;;;;;;;;;;5092097;28;20198;-85
2024/01/14 08:02:51;;;;;;;27.10;13.90;;;;;;;;;;5091834;28;20284;-87
2024/01/14 08:05:35;;;;;;;30.00;14.27;;;;;;;;;;5093242;28;20194;-84
2024/01/14 08:08:05;;;;;;;24.97;14.33;;;;;;;;;;5091496;28;20225;-84
2024/01/14 08:10:34;;;;;;;37.47;16.10;;;;;;;;;;5090352;28;20289;-84
2024/01/14 08:13:02;;;;;;;39.67;16.80;;;;;;;;;;5089924;28;20240;-86
2024/01/14 08:15:31;;;;;;;20.20;11.10;;;;;;;;;;5090107;28;20194;-85
2024/01/14 08:18:04;;;;;;;20.27;11.40;;;;;;;;;;5089988;28;20522;-85
2024/01/14 08:20:36;;;;;;;21.73;10.20;;;;;;;;;;5090505;28;20190;-85
2024/01/14 08:23:10;;;;;;;17.07;8.83;;;;;;;;;;5090554;28;20238;-86
2024/01/14 08:25:41;;;;;;;23.23;9.63;;;;;;;;;;5092317;28;20270;-86
2024/01/14 08:28:10;;;;;;;11.30;7.33;;;;;;;;;;5091454;28;20233;-85
2024/01/14 08:30:38;;;;;;;24.03;10.00;;;;;;;;;;5092589;28;20578;-85
2024/01/14 08:33:11;;;;;;;16.83;9.60;;;;;;;;;;5091574;28;20263;-86
2024/01/14 08:35:39;;;;;;;25.20;9.70;;;;;;;;;;5092574;28;20194;-85
2024/01/14 08:38:10;;;;;;;15.17;9.17;;;;;;;;;;5093100;28;20198;-85
2024/01/14 08:40:38;;;;;;;32.67;9.87;;;;;;;;;;5095424;28;20285;-86
2024/01/14 08:43:06;;;;;;;14.00;9.23;;;;;;;;;;5094926;28;20197;-87
2024/01/14 08:45:34;;;;;;;20.57;9.80;;;;;;;;;;5096463;28;20194;-84
2024/01/14 08:48:15;;;;;;;21.70;10.37;;;;;;;;;;5102954;28;20205;-85
2024/01/14 08:50:42;;;;;;;23.00;10.37;;;;;;;;;;5114906;28;20274;-84
2024/01/14 08:53:27;;;;;;;23.33;9.33;;;;;;;;;;5104572;28;20218;-86
2024/01/14 08:56:11;;;;;;;18.50;10.37;;;;;;;;;;5091780;28;20194;-85
2024/01/14 08:58:40;;;;;;;21.33;9.53;;;;;;;;;;5092044;28;20218;-85
2024/01/14 09:01:07;;;;;;;20.80;10.03;;;;;;;;;;5091334;28;20612;-85
2024/01/14 09:03:35;;;;;;;21.37;9.90;;;;;;;;;;5090141;28;20281;-86
2024/01/14 09:06:02;;;;;;;16.17;9.70;;;;;;;;;;5091322;28;20198;-86
2024/01/14 09:08:30;;;;;;;20.70;9.17;;;;;;;;;;5091356;28;20296;-87
2024/01/14 09:10:59;;;;;;;24.47;11.17;;;;;;;;;;5091344;28;20201;-86
2024/01/14 09:13:26;;;;;;;25.23;10.77;;;;;;;;;;5091833;28;20229;-85
2024/01/14 09:15:54;;;;;;;21.30;10.67;;;;;;;;;;5090915;28;20198;-86
2024/01/14 09:18:21;;;;;;;25.13;10.43;;;;;;;;;;5090952;28;20205;-86
2024/01/14 09:20:49;;;;;;;24.73;12.70;;;;;;;;;;5092208;28;20601;-87
2024/01/14 09:23:16;;;;;;;26.20;12.60;;;;;;;;;;5091405;28;20291;-86
2024/01/14 09:25:45;;;;;;;25.03;11.40;;;;;;;;;;5091799;28;20194;-85
2024/01/14 09:28:25;;;;;;;26.00;11.97;;;;;;;;;;5092990;28;20190;-86
2024/01/14 09:30:56;;;;;;;28.97;12.73;;;;;;;;;;5092580;28;20205;-86
2024/01/14 09:33:27;;;;;;;26.33;13.27;;;;;;;;;;5091623;28;20645;-86
2024/01/14 09:36:05;;;;;;;;;;;;;;;;;;;;;
2024/01/14 09:38:43;;;;;;;24.63;12.87;;;;;;;;;;5091842;28;20212;-85
2024/01/14 09:41:21;;;;;;;31.03;14.40;;;;;;;;;;5092584;28;20198;-86
2024/01/14 09:43:55;;;;;;;23.13;12.47;;;;;;;;;;5093939;28;20509;-86
2024/01/14 09:46:23;;;;;;;28.17;12.53;;;;;;;;;;5092082;28;20228;-87
2024/01/14 09:48:55;;;;;;;24.27;13.30;;;;;;;;;;5094200;28;20198;-85
2024/01/14 09:51:28;;;;;;;33.50;14.33;;;;;;;;;;5091282;28;20225;-83
2024/01/14 09:54:03;;;;;;;26.83;12.67;;;;;;;;;;5091341;28;20706;-85
2024/01/14 09:56:34;;;;;;;27.77;12.60;;;;;;;;;;5091814;28;20200;-85
2024/01/14 09:59:13;;;;;;;25.13;12.43;;;;;;;;;;5091154;28;20198;-86
2024/01/14 10:01:57;;;;;;;32.77;13.00;;;;;;;;;;5089898;28;20680;-85
2024/01/14 10:07:20;;;;;;;25.47;11.20;;;;;;;;;;5090798;28;20202;-87
2024/01/14 10:09:52;;;;;;;24.93;11.13;;;;;;;;;;5091895;28;20229;-86
2024/01/14 10:12:34;;;;;;;27.27;11.33;;;;;;;;;;5101909;28;20665;-85
2024/01/14 10:15:12;;;;;;;33.30;11.57;;;;;;;;;;5110973;28;20713;-86
2024/01/14 10:20:23;;;;;;;22.57;11.10;;;;;;;;;;5100431;28;20208;-87
2024/01/14 10:22:56;;;;;;;22.23;12.30;;;;;;;;;;5114684;28;20224;-86
2024/01/14 10:25:32;;;;;;;23.40;11.80;;;;;;;;;;5116649;28;20313;-86
2024/01/14 10:28:03;;;;;;;26.50;12.33;;;;;;;;;;5115942;28;20205;-87
2024/01/14 10:30:37;;;;;;;20.00;10.67;;;;;;;;;;5116186;28;20584;-87
2024/01/14 10:33:09;;;;;;;20.03;10.63;;;;;;;;;;5117101;28;20662;-86
2024/01/14 10:35:40;;;;;;;24.37;12.47;;;;;;;;;;5120440;28;20284;-86
2024/01/14 10:38:08;;;;;;;24.47;11.17;;;;;;;;;;5129926;28;20197;-87
2024/01/14 10:40:35;;;;;;;23.73;12.07;;;;;;;;;;5127529;28;20204;-87
2024/01/14 10:43:03;;;;;;;25.70;12.47;;;;;;;;;;5135404;28;20193;-87
2024/01/14 10:45:37;;;;;;;25.07;10.93;;;;;;;;;;5120255;28;20240;-86
2024/01/14 10:48:10;;;;;;;22.43;10.40;;;;;;;;;;5115098;28;20309;-85
2024/01/14 10:50:52;;;;;;;29.17;10.43;;;;;;;;;;5115384;28;20208;-86
2024/01/14 10:53:26;;;;;;;22.87;11.03;;;;;;;;;;5114490;28;20229;-87
2024/01/14 10:55:59;;;;;;;20.03;10.33;;;;;;;;;;5115381;28;20613;-84
2024/01/14 10:58:31;;;;;;;20.77;9.80;;;;;;;;;;5114689;28;20270;-86
2024/01/14 11:01:05;;;;;;;17.37;9.60;;;;;;;;;;5113975;28;20209;-86
2024/01/14 11:03:36;;;;;;;18.17;9.87;;;;;;;;;;5114040;28;20280;-87
2024/01/14 11:06:04;;;;;;;22.23;10.30;;;;;;;;;;5114703;28;20215;-86
2024/01/14 11:08:32;;;;;;;21.87;11.07;;;;;;;;;;5113160;28;20282;-85
2024/01/14 11:11:00;;;;;;;22.47;10.13;;;;;;;;;;5115436;28;20285;-86
2024/01/14 11:13:30;;;;;;;16.33;10.00;;;;;;;;;;5115875;28;20236;-86
2024/01/14 11:16:04;;;;;;;17.30;9.80;;;;;;;;;;5115600;28;20236;-86
2024/01/14 11:18:33;;;;;;;27.33;11.63;;;;;;;;;;5115849;28;20257;-87
2024/01/14 11:21:10;;;;;;;26.60;10.80;;;;;;;;;;5115090;28;20189;-86
2024/01/14 11:23:40;;;;;;;22.17;11.10;;;;;;;;;;5114151;28;20272;-88
2024/01/14 11:26:10;;;;;;;23.97;11.50;;;;;;;;;;5114773;28;20757;-85
2024/01/14 11:28:37;;;;;;;23.90;10.50;;;;;;;;;;5114316;28;20197;-85
2024/01/14 11:31:08;;;;;;;21.13;11.07;;;;;;;;;;5125854;28;20204;-86
2024/01/14 11:33:40;;;;;;;26.10;10.67;;;;;;;;;;5135320;28;20228;-86
2024/01/14 11:36:10;;;;;;;20.00;10.73;;;;;;;;;;5132048;28;20212;-88
2024/01/14 11:38:41;;;;;;;29.37;11.50;;;;;;;;;;5114827;28;20300;-87
2024/01/14 11:41:24;;;;;;;17.03;9.73;;;;;;;;;;5114549;28;20208;-87
2024/01/14 11:43:56;;;;;;;23.23;10.50;;;;;;;;;;5114453;28;20220;-86
2024/01/14 11:46:40;;;;;;;23.37;10.53;;;;;;;;;;5113822;28;20204;-87
2024/01/14 11:49:21;;;;;;;22.27;11.80;;;;;;;;;;5113700;28;20205;-88
2024/01/14 11:51:57;;;;;;;20.50;11.17;;;;;;;;;;5114276;28;20575;-87
2024/01/14 11:54:26;;;;;;;21.17;10.93;;;;;;;;;;5113916;28;20232;-87
2024/01/14 11:56:54;;;;;;;25.47;12.10;;;;;;;;;;5115401;28;20205;-86
2024/01/14 11:59:27;;;;;;;24.33;10.87;;;;;;;;;;5114178;28;20193;-87
2024/01/14 12:01:55;;;;;;;24.07;11.13;;;;;;;;;;5114370;28;20587;-87
2024/01/14 12:04:35;;;;;;;;;;;;;;;;;;;;;
2024/01/14 12:07:20;;;;;;;29.23;10.57;;;;;;;;;;5114296;28;20204;-86
2024/01/14 12:09:54;;;;;;;23.00;10.80;;;;;;;;;;5113197;28;20221;-85
2024/01/14 12:12:24;;;;;;;23.73;10.50;;;;;;;;;;5114862;28;20582;-87
2024/01/14 12:14:52;;;;;;;25.77;11.03;;;;;;;;;;5114545;28;20288;-86
2024/01/14 12:17:22;;;;;;;25.83;11.90;;;;;;;;;;5114154;28;20578;-86
2024/01/14 12:20:11;;;;;;;;;;;;;;;;;;;;;
2024/01/14 12:22:42;;;;;;;19.53;10.00;;;;;;;;;;5124976;28;20221;-85
2024/01/14 12:25:25;;;;;;;26.07;11.00;;;;;;;;;;5133729;28;20796;-86
2024/01/14 12:28:04;;;;;;;22.53;11.53;;;;;;;;;;5128360;28;20216;-85
2024/01/14 12:30:44;;;;;;;24.37;10.50;;;;;;;;;;5113256;28;20276;-86
2024/01/14 12:33:24;;;;;;;20.13;9.87;;;;;;;;;;5113090;28;20287;-87
2024/01/14 12:35:58;;;;;;;24.33;10.50;;;;;;;;;;5112809;28;20274;-87
2024/01/14 12:38:31;;;;;;;28.63;12.17;;;;;;;;;;5112380;28;20474;-86
2024/01/14 12:41:09;;;;;;;19.60;10.50;;;;;;;;;;5112578;28;20292;-86
2024/01/14 12:43:51;;;;;;;22.00;11.67;;;;;;;;;;5111987;28;20205;-87
2024/01/14 12:46:40;;;;;;;20.87;9.93;;;;;;;;;;5111743;28;20274;-88
2024/01/14 12:49:14;;;;;;;21.10;10.00;;;;;;;;;;5113604;28;20243;-86
2024/01/14 12:51:43;;;;;;;23.83;11.30;;;;;;;;;;5112206;28;20216;-87
2024/01/14 12:54:19;;;;;;;17.97;10.10;;;;;;;;;;5115307;28;20709;-85
2024/01/14 12:56:58;;;;;;;21.43;10.37;;;;;;;;;;5123029;28;20208;-86
2024/01/14 12:59:34;;;;;;;24.20;10.20;;;;;;;;;;5125458;28;20222;-86
2024/01/14 13:02:15;;;;;;;24.80;10.20;;;;;;;;;;5128478;28;20193;-85
2024/01/14 13:04:45;;;;;;;21.77;10.83;;;;;;;;;;5124514;28;20281;-86
2024/01/14 13:07:16;;;;;;;26.63;11.00;;;;;;;;;;5126927;28;20254;-86
2024/01/14 13:09:46;;;;;;;32.67;11.87;;;;;;;;;;5130031;28;20213;-86
2024/01/14 13:12:18;;;;;;;21.97;10.53;;;;;;;;;;5129393;28;20193;-86
2024/01/14 13:15:11;;;;;;;19.70;10.23;;;;;;;;;;5117205;28;20252;-87
2024/01/14 13:17:51;;;;;;;29.77;10.63;;;;;;;;;;5122427;28;20223;-86
2024/01/14 13:20:20;;;;;;;28.00;11.07;;;;;;;;;;5123701;28;20272;-87
2024/01/14 13:22:53;;;;;;;25.10;9.57;;;;;;;;;;5120610;28;20233;-87
2024/01/14 13:25:23;;;;;;;24.97;11.47;;;;;;;;;;5126689;28;20199;-87
2024/01/14 13:27:51;;;;;;;23.07;10.10;;;;;;;;;;5120880;28;20688;-87
2024/01/14 13:30:22;;;;;;;21.10;10.67;;;;;;;;;;5121786;28;20556;-87
2024/01/14 13:32:50;;;;;;;20.87;10.57;;;;;;;;;;5119348;28;20262;-87
2024/01/14 13:35:17;;;;;;;25.17;10.37;;;;;;;;;;5117762;28;20227;-86
2024/01/14 13:37:46;;;;;;;19.90;9.47;;;;;;;;;;5122328;28;20193;-88
2024/01/14 13:40:17;;;;;;;26.47;10.53;;;;;;;;;;5124312;28;20200;-86
2024/01/14 13:42:46;;;;;;;30.33;9.37;;;;;;;;;;5128463;28;20189;-85
2024/01/14 13:45:19;;;;;;;18.53;9.33;;;;;;;;;;5134801;28;20201;-87
2024/01/14 13:48:04;;;;;;;31.30;11.17;;;;;;;;;;5132138;28;20185;-85
2024/01/14 13:50:42;;;;;;;25.53;9.80;;;;;;;;;;5133943;28;20195;-85
2024/01/14 13:53:18;;;;;;;14.20;7.67;;;;;;;;;;5119652;28;20248;-86
2024/01/14 13:55:49;;;;;;;17.67;9.13;;;;;;;;;;5122385;28;20247;-87
2024/01/14 13:58:17;;;;;;;19.23;9.93;;;;;;;;;;5125644;28;20246;-87
2024/01/14 14:00:45;;;;;;;25.93;10.50;;;;;;;;;;5127034;28;20189;-87
2024/01/14 14:03:24;;;;;;;25.00;10.20;;;;;;;;;;5126479;28;20201;-86
2024/01/14 14:05:53;;;;;;;15.80;7.87;;;;;;;;;;5125090;28;20200;-86
2024/01/14 14:08:25;;;;;;;16.13;8.80;;;;;;;;;;5122605;28;20225;-87
2024/01/14 14:10:56;;;;;;;17.33;9.07;;;;;;;;;;5122218;28;20309;-87
2024/01/14 14:13:23;;;;;;;25.60;9.93;;;;;;;;;;5122662;28;20193;-86
2024/01/14 14:16:05;;;;;;;16.93;9.00;;;;;;;;;;5123374;28;20237;-84
2024/01/14 14:18:43;;;;;;;28.27;10.53;;;;;;;;;;5124382;28;20216;-86
2024/01/14 14:24:08;;;;;;;26.10;10.87;;;;;;;;;;5099635;28;20224;-86
2024/01/14 14:26:40;;;;;;;28.23;9.10;;;;;;;;;;5122016;28;20209;-87
2024/01/14 14:29:17;;;;;;;27.07;12.17;;;;;;;;;;5120318;28;20197;-87
2024/01/14 14:31:45;;;;;;;36.77;11.63;;;;;;;;;;5122855;28;20237;-86
2024/01/14 14:34:20;;;;;;;37.77;13.07;;;;;;;;;;5123205;28;20213;-87
2024/01/14 14:36:49;;;;;;;30.73;14.23;;;;;;;;;;5123685;28;20204;-86
2024/01/14 14:39:21;;;;;;;23.67;11.67;;;;;;;;;;5123516;28;20205;-86
2024/01/14 14:41:53;;;;;;;31.50;12.63;;;;;;;;;;5124056;28;20208;-86
2024/01/14 14:44:22;;;;;;;48.60;18.37;;;;;;;;;;5124294;28;20213;-87
2024/01/14 14:46:52;;;;;;;71.90;23.30;;;;;;;;;;5123223;28;20216;-87
2024/01/14 14:49:22;;;;;;;42.80;16.30;;;;;;;;;;5121993;28;20317;-86
2024/01/14 14:51:50;;;;;;;42.67;16.47;;;;;;;;;;5125150;28;20666;-85
2024/01/14 14:54:18;;;;;;;32.00;17.37;;;;;;;;;;5122251;28;20212;-87
2024/01/14 14:56:50;;;;;;;39.93;15.73;;;;;;;;;;5120591;28;20234;-86
2024/01/14 14:59:30;;;;;;;47.93;17.03;;;;;;;;;;5122151;28;20262;-87
2024/01/14 15:01:58;;;;;;;37.00;13.77;;;;;;;;;;5123837;28;20208;-86
2024/01/14 15:04:30;;;;;;;23.90;13.73;;;;;;;;;;5121617;28;20201;-86
2024/01/14 15:06:58;;;;;;;24.00;12.97;;;;;;;;;;5122191;28;20266;-86
2024/01/14 15:09:30;;;;;;;29.03;12.40;;;;;;;;;;5129107;28;20781;-87